sensor_id;sensor_type;location;lat;lon;timestamp;temperature;humidity
23452;DHT22;11898;51.130;6.780;2023-01-19T19:41:21;5.00;99.90
23452;DHT22;11898;51.130;6.780;2023-01-19T19:43:50;3.00;99.90
23452;DHT22;11898;51.130;6.780;2023-01-19T19:46:20;2.80;99.90
23452;DHT22;11898;51.130;6.780;2023-01-19T19:48:51;2.80;99.90
23452;DHT22;11898;51.130;6.780;2023-01-19T19:51:22;2.80;99.90
23452;DHT22;11898;51.130;6.780;2023-01-19T19:53:52;2.80;99.90
23452;DHT22;11898;51.130;6.780;2023-01-19T19:56:22;2.70;99.90
23452;DHT22;11898;51.130;6.780;2023-01-19T19:58:53;2.80;99.90
23452;DHT22;11898;51.130;6.780;2023-01-19T20:01:25;2.80;99.90
23452;DHT22;11898;51.130;6.780;2023-01-19T20:04:06;2.80;99.90
23452;DHT22;11898;51.130;6.780;2023-01-19T20:06:37;2.80;99.90
23452;DHT22;11898;51.130;6.780;2023-01-19T20:09:08;2.70;99.90
23452;DHT22;11898;51.130;6.780;2023-01-19T20:11:39;2.70;99.90
23452;DHT22;11898;51.130;6.780;2023-01-19T20:14:09;2.80;99.90
23452;DHT22;11898;51.130;6.780;2023-01-19T20:16:38;2.60;99.90
23452;DHT22;11898;51.130;6.780;2023-01-19T20:19:07;2.50;99.90
23452;DHT22;11898;51.130;6.780;2023-01-19T20:21:38;2.50;99.90
23452;DHT22;11898;51.130;6.780;2023-01-19T20:24:17;2.60;99.90
23452;DHT22;11898;51.130;6.780;2023-01-19T20:26:49;2.50;99.90
23452;DHT22;11898;51.130;6.780;2023-01-19T20:29:18;2.40;99.90
23452;DHT22;11898;51.130;6.780;2023-01-19T20:31:50;2.40;99.90
23452;DHT22;11898;51.130;6.780;2023-01-19T20:34:21;2.40;99.90
23452;DHT22;11898;51.130;6.780;2023-01-19T20:36:50;2.40;99.90
23452;DHT22;11898;51.130;6.780;2023-01-19T20:39:21;2.40;99.90
23452;DHT22;11898;51.130;6.780;2023-01-19T20:41:51;2.50;99.90
23452;DHT22;11898;51.130;6.780;2023-01-19T20:44:21;2.40;99.90
23452;DHT22;11898;51.130;6.780;2023-01-19T20:46:51;2.40;99.90
23452;DHT22;11898;51.130;6.780;2023-01-19T20:49:20;2.40;99.90
23452;DHT22;11898;51.130;6.780;2023-01-19T20:51:49;2.30;99.90
23452;DHT22;11898;51.130;6.780;2023-01-19T20:54:20;2.50;99.90
23452;DHT22;11898;51.130;6.780;2023-01-19T20:56:50;2.30;99.90
23452;DHT22;11898;51.130;6.780;2023-01-19T20:59:19;2.30;99.90
23452;DHT22;11898;51.130;6.780;2023-01-19T21:01:48;2.30;99.90
23452;DHT22;11898;51.130;6.780;2023-01-19T21:04:17;2.40;99.90
23452;DHT22;11898;51.130;6.780;2023-01-19T21:09:14;2.30;99.90
23452;DHT22;11898;51.130;6.780;2023-01-19T21:11:44;2.20;99.90
23452;DHT22;11898;51.130;6.780;2023-01-19T21:14:13;2.20;99.90
23452;DHT22;11898;51.130;6.780;2023-01-19T21:16:42;2.10;99.90
23452;DHT22;11898;51.130;6.780;2023-01-19T21:21:39;2.00;99.90
23452;DHT22;11898;51.130;6.780;2023-01-19T21:24:09;2.00;99.90
23452;DHT22;11898;51.130;6.780;2023-01-19T21:26:38;1.80;99.90
23452;DHT22;11898;51.130;6.780;2023-01-19T21:29:09;1.90;99.90
23452;DHT22;11898;51.130;6.780;2023-01-19T21:31:40;1.70;99.90
23452;DHT22;11898;51.130;6.780;2023-01-19T21:34:09;1.60;99.90
23452;DHT22;11898;51.130;6.780;2023-01-19T21:36:38;1.60;99.90
23452;DHT22;11898;51.130;6.780;2023-01-19T21:39:08;1.50;99.90
23452;DHT22;11898;51.130;6.780;2023-01-19T21:41:37;1.50;99.90
23452;DHT22;11898;51.130;6.780;2023-01-19T21:44:08;1.70;99.90
23452;DHT22;11898;51.130;6.780;2023-01-19T21:46:37;1.80;99.90
23452;DHT22;11898;51.130;6.780;2023-01-19T21:49:07;1.90;99.90
23452;DHT22;11898;51.130;6.780;2023-01-19T21:51:36;2.00;99.90
23452;DHT22;11898;51.130;6.780;2023-01-19T21:54:05;2.10;99.90
23452;DHT22;11898;51.130;6.780;2023-01-19T21:56:35;2.20;99.90
23452;DHT22;11898;51.130;6.780;2023-01-19T21:59:05;2.20;99.90
23452;DHT22;11898;51.130;6.780;2023-01-19T22:01:34;2.20;99.90
23452;DHT22;11898;51.130;6.780;2023-01-19T22:04:03;2.20;99.90
23452;DHT22;11898;51.130;6.780;2023-01-19T22:06:32;2.20;99.90
23452;DHT22;11898;51.130;6.780;2023-01-19T22:09:01;2.20;99.90
23452;DHT22;11898;51.130;6.780;2023-01-19T22:11:29;2.10;99.90
23452;DHT22;11898;51.130;6.780;2023-01-19T22:13:58;2.20;99.90
23452;DHT22;11898;51.130;6.780;2023-01-19T22:16:28;2.30;99.90
23452;DHT22;11898;51.130;6.780;2023-01-19T22:19:00;2.40;99.90
23452;DHT22;11898;51.130;6.780;2023-01-19T22:21:31;2.50;99.90
23452;DHT22;11898;51.130;6.780;2023-01-19T22:24:03;2.40;99.90
23452;DHT22;11898;51.130;6.780;2023-01-19T22:26:33;2.50;99.90
23452;DHT22;11898;51.130;6.780;2023-01-19T22:29:04;2.50;99.90
23452;DHT22;11898;51.130;6.780;2023-01-19T22:31:34;2.40;99.90
23452;DHT22;11898;51.130;6.780;2023-01-19T22:34:03;2.50;99.90
23452;DHT22;11898;51.130;6.780;2023-01-19T22:36:34;2.40;99.90
23452;DHT22;11898;51.130;6.780;2023-01-19T22:39:08;2.40;99.90
23452;DHT22;11898;51.130;6.780;2023-01-19T22:41:42;2.40;99.90
23452;DHT22;11898;51.130;6.780;2023-01-19T22:44:14;2.30;99.90
23452;DHT22;11898;51.130;6.780;2023-01-19T22:46:43;3.10;99.90
23452;DHT22;11898;51.130;6.780;2023-01-19T22:49:13;2.20;99.90
23452;DHT22;11898;51.130;6.780;2023-01-19T22:51:43;2.20;99.90
23452;DHT22;11898;51.130;6.780;2023-01-19T22:54:12;2.10;99.90
23452;DHT22;11898;51.130;6.780;2023-01-19T22:56:41;2.00;99.90
23452;DHT22;11898;51.130;6.780;2023-01-19T22:59:10;1.90;99.90
23452;DHT22;11898;51.130;6.780;2023-01-19T23:01:40;2.00;99.90
23452;DHT22;11898;51.130;6.780;2023-01-19T23:04:14;1.70;99.90
23452;DHT22;11898;51.130;6.780;2023-01-19T23:06:43;2.60;99.90
23452;DHT22;11898;51.130;6.780;2023-01-19T23:09:14;1.80;99.90
23452;DHT22;11898;51.130;6.780;2023-01-19T23:11:44;1.80;99.90
23452;DHT22;11898;51.130;6.780;2023-01-19T23:14:14;1.80;99.90
23452;DHT22;11898;51.130;6.780;2023-01-19T23:16:44;1.90;99.90
23452;DHT22;11898;51.130;6.780;2023-01-19T23:19:13;1.90;99.90
23452;DHT22;11898;51.130;6.780;2023-01-19T23:21:44;1.90;99.90
23452;DHT22;11898;51.130;6.780;2023-01-19T23:24:12;2.00;99.90
23452;DHT22;11898;51.130;6.780;2023-01-19T23:29:13;2.20;99.90
23452;DHT22;11898;51.130;6.780;2023-01-19T23:31:44;2.20;99.90
23452;DHT22;11898;51.130;6.780;2023-01-19T23:34:13;2.20;99.90
23452;DHT22;11898;51.130;6.780;2023-01-19T23:36:42;2.30;99.90
23452;DHT22;11898;51.130;6.780;2023-01-19T23:39:16;2.30;99.90
23452;DHT22;11898;51.130;6.780;2023-01-19T23:41:45;2.20;99.90
23452;DHT22;11898;51.130;6.780;2023-01-19T23:44:15;2.20;99.90
23452;DHT22;11898;51.130;6.780;2023-01-19T23:46:44;2.90;99.90
23452;DHT22;11898;51.130;6.780;2023-01-19T23:51:41;2.40;99.90
23452;DHT22;11898;51.130;6.780;2023-01-19T23:54:10;2.50;99.90
23452;DHT22;11898;51.130;6.780;2023-01-19T23:56:39;2.60;99.90
